sensor_id;sensor_type;location;lat;lon;timestamp;P1;P2;P0
50589;PMS7003;36547;50.514;30.840;2024-01-30T00:00:21;48.10;40.40;25.60
50589;PMS7003;36547;50.514;30.840;2024-01-30T00:01:23;42.90;38.90;26.50
50589;PMS7003;36547;50.514;30.840;2024-01-30T00:02:25;46.70;40.80;24.90
50589;PMS7003;36547;50.514;30.840;2024-01-30T00:03:27;43.00;39.67;24.56
50589;PMS7003;36547;50.514;30.840;2024-01-30T00:04:30;43.90;39.40;26.30
50589;PMS7003;36547;50.514;30.840;2024-01-30T00:05:32;42.11;38.33;23.78
50589;PMS7003;36547;50.514;30.840;2024-01-30T00:06:35;36.90;33.80;22.90
50589;PMS7003;36547;50.514;30.840;2024-01-30T00:07:37;39.00;36.30;22.60
50589;PMS7003;36547;50.514;30.840;2024-01-30T00:08:40;41.30;35.30;23.70
50589;PMS7003;36547;50.514;30.840;2024-01-30T00:09:42;44.78;39.56;25.33
50589;PMS7003;36547;50.514;30.840;2024-01-30T00:10:44;41.30;36.00;23.30
50589;PMS7003;36547;50.514;30.840;2024-01-30T00:11:47;40.00;36.90;24.60
50589;PMS7003;36547;50.514;30.840;2024-01-30T00:12:49;45.70;40.30;27.40
50589;PMS7003;36547;50.514;30.840;2024-01-30T00:13:52;47.80;40.80;26.40
50589;PMS7003;36547;50.514;30.840;2024-01-30T00:14:55;50.50;42.90;26.70
50589;PMS7003;36547;50.514;30.840;2024-01-30T00:15:57;50.20;43.90;27.10
50589;PMS7003;36547;50.514;30.840;2024-01-30T00:16:59;47.40;42.30;27.70
50589;PMS7003;36547;50.514;30.840;2024-01-30T00:18:02;42.60;39.10;25.90
50589;PMS7003;36547;50.514;30.840;2024-01-30T00:19:04;46.90;41.80;26.40
50589;PMS7003;36547;50.514;30.840;2024-01-30T00:20:07;40.30;38.70;24.90
50589;PMS7003;36547;50.514;30.840;2024-01-30T00:21:10;37.20;34.70;22.30
50589;PMS7003;36547;50.514;30.840;2024-01-30T00:22:12;44.00;39.89;26.78
50589;PMS7003;36547;50.514;30.840;2024-01-30T00:23:16;42.30;39.20;26.30
50589;PMS7003;36547;50.514;30.840;2024-01-30T00:24:18;39.56;37.00;24.67
50589;PMS7003;36547;50.514;30.840;2024-01-30T00:25:23;42.20;39.20;25.60
50589;PMS7003;36547;50.514;30.840;2024-01-30T00:26:25;38.40;37.70;23.70
50589;PMS7003;36547;50.514;30.840;2024-01-30T00:27:28;39.78;37.89;23.78
50589;PMS7003;36547;50.514;30.840;2024-01-30T00:28:30;43.80;38.40;23.60
50589;PMS7003;36547;50.514;30.840;2024-01-30T00:29:33;38.00;36.30;23.00
50589;PMS7003;36547;50.514;30.840;2024-01-30T00:30:35;36.10;32.90;21.50
50589;PMS7003;36547;50.514;30.840;2024-01-30T00:31:38;37.80;35.10;18.60
50589;PMS7003;36547;50.514;30.840;2024-01-30T00:32:42;34.20;33.70;19.50
50589;PMS7003;36547;50.514;30.840;2024-01-30T00:33:44;33.90;32.70;20.60
50589;PMS7003;36547;50.514;30.840;2024-01-30T00:34:46;28.40;27.90;17.90
50589;PMS7003;36547;50.514;30.840;2024-01-30T00:35:49;30.70;28.70;20.10
50589;PMS7003;36547;50.514;30.840;2024-01-30T00:36:51;32.90;30.30;18.40
50589;PMS7003;36547;50.514;30.840;2024-01-30T00:37:53;31.00;28.60;17.90
50589;PMS7003;36547;50.514;30.840;2024-01-30T00:38:57;28.50;27.80;19.20
50589;PMS7003;36547;50.514;30.840;2024-01-30T00:39:59;31.40;29.90;20.50
50589;PMS7003;36547;50.514;30.840;2024-01-30T00:41:02;32.40;30.20;19.10
50589;PMS7003;36547;50.514;30.840;2024-01-30T00:42:04;31.00;30.20;19.20
50589;PMS7003;36547;50.514;30.840;2024-01-30T00:43:07;31.90;29.10;18.80
50589;PMS7003;36547;50.514;30.840;2024-01-30T00:44:09;33.30;29.80;21.20
50589;PMS7003;36547;50.514;30.840;2024-01-30T00:45:15;28.20;26.50;20.40
50589;PMS7003;36547;50.514;30.840;2024-01-30T00:46:18;33.70;32.20;19.80
50589;PMS7003;36547;50.514;30.840;2024-01-30T00:47:21;31.90;30.70;20.70
50589;PMS7003;36547;50.514;30.840;2024-01-30T00:48:23;32.10;30.60;20.10
50589;PMS7003;36547;50.514;30.840;2024-01-30T00:49:25;27.00;26.10;15.80
50589;PMS7003;36547;50.514;30.840;2024-01-30T00:50:28;29.50;28.50;19.00
50589;PMS7003;36547;50.514;30.840;2024-01-30T00:51:31;36.70;33.80;22.00
50589;PMS7003;36547;50.514;30.840;2024-01-30T00:52:33;20.90;17.40;5.90
50589;PMS7003;36547;50.514;30.840;2024-01-30T00:53:36;33.20;31.30;21.00
50589;PMS7003;36547;50.514;30.840;2024-01-30T00:54:38;35.30;33.20;22.60
50589;PMS7003;36547;50.514;30.840;2024-01-30T00:55:41;41.90;38.00;25.00
50589;PMS7003;36547;50.514;30.840;2024-01-30T00:56:43;37.10;36.10;22.80
50589;PMS7003;36547;50.514;30.840;2024-01-30T00:57:46;44.50;39.30;24.20
50589;PMS7003;36547;50.514;30.840;2024-01-30T00:58:48;40.50;37.60;23.90
50589;PMS7003;36547;50.514;30.840;2024-01-30T00:59:50;43.10;39.80;27.40
50589;PMS7003;36547;50.514;30.840;2024-01-30T01:00:53;52.30;43.70;26.20
50589;PMS7003;36547;50.514;30.840;2024-01-30T01:01:55;48.30;42.20;27.00
50589;PMS7003;36547;50.514;30.840;2024-01-30T01:02:58;49.90;42.50;26.40
50589;PMS7003;36547;50.514;30.840;2024-01-30T01:04:01;54.40;42.70;27.40
50589;PMS7003;36547;50.514;30.840;2024-01-30T01:05:04;50.60;42.60;26.40
50589;PMS7003;36547;50.514;30.840;2024-01-30T01:06:07;49.90;41.50;25.00
50589;PMS7003;36547;50.514;30.840;2024-01-30T01:07:10;46.40;40.10;25.90
50589;PMS7003;36547;50.514;30.840;2024-01-30T01:08:13;49.50;41.90;26.30
50589;PMS7003;36547;50.514;30.840;2024-01-30T01:09:15;52.33;45.11;27.56
50589;PMS7003;36547;50.514;30.840;2024-01-30T01:10:17;51.90;44.90;27.70
50589;PMS7003;36547;50.514;30.840;2024-01-30T01:11:20;47.00;41.10;26.10
50589;PMS7003;36547;50.514;30.840;2024-01-30T01:12:22;47.30;41.60;24.70
50589;PMS7003;36547;50.514;30.840;2024-01-30T01:13:25;44.91;40.36;26.09
50589;PMS7003;36547;50.514;30.840;2024-01-30T01:14:28;41.50;38.30;23.30
50589;PMS7003;36547;50.514;30.840;2024-01-30T01:15:30;37.70;36.50;21.70
50589;PMS7003;36547;50.514;30.840;2024-01-30T01:16:33;38.50;36.50;24.10
50589;PMS7003;36547;50.514;30.840;2024-01-30T01:17:36;39.80;35.90;23.70
50589;PMS7003;36547;50.514;30.840;2024-01-30T01:18:40;38.80;35.80;22.70
50589;PMS7003;36547;50.514;30.840;2024-01-30T01:19:43;34.40;33.70;21.60
50589;PMS7003;36547;50.514;30.840;2024-01-30T01:20:46;31.30;31.30;21.30
50589;PMS7003;36547;50.514;30.840;2024-01-30T01:21:49;35.40;33.20;22.10
50589;PMS7003;36547;50.514;30.840;2024-01-30T01:22:52;38.70;35.80;22.80
50589;PMS7003;36547;50.514;30.840;2024-01-30T01:23:54;41.60;37.80;23.00
50589;PMS7003;36547;50.514;30.840;2024-01-30T01:24:57;40.00;35.00;22.00
50589;PMS7003;36547;50.514;30.840;2024-01-30T01:25:59;26.50;26.50;14.30
50589;PMS7003;36547;50.514;30.840;2024-01-30T01:27:03;38.60;36.30;22.80
50589;PMS7003;36547;50.514;30.840;2024-01-30T01:28:07;40.90;38.90;22.30
50589;PMS7003;36547;50.514;30.840;2024-01-30T01:29:09;38.50;34.70;22.90
50589;PMS7003;36547;50.514;30.840;2024-01-30T01:30:13;34.90;34.50;21.80
50589;PMS7003;36547;50.514;30.840;2024-01-30T01:31:15;41.20;37.10;23.30
50589;PMS7003;36547;50.514;30.840;2024-01-30T01:32:18;38.70;35.80;23.60
50589;PMS7003;36547;50.514;30.840;2024-01-30T01:33:20;38.40;34.70;21.90
50589;PMS7003;36547;50.514;30.840;2024-01-30T01:34:23;31.30;29.40;20.10
50589;PMS7003;36547;50.514;30.840;2024-01-30T01:35:26;37.70;35.50;22.20
50589;PMS7003;36547;50.514;30.840;2024-01-30T01:36:29;31.90;31.40;20.70
50589;PMS7003;36547;50.514;30.840;2024-01-30T01:37:32;32.22;30.89;19.78
50589;PMS7003;36547;50.514;30.840;2024-01-30T01:38:35;31.50;30.70;20.30
50589;PMS7003;36547;50.514;30.840;2024-01-30T01:39:37;14.00;14.00;9.00
50589;PMS7003;36547;50.514;30.840;2024-01-30T01:40:40;25.18;24.64;16.82
50589;PMS7003;36547;50.514;30.840;2024-01-30T01:41:42;29.60;27.90;18.40
50589;PMS7003;36547;50.514;30.840;2024-01-30T01:42:45;24.40;24.30;16.90
50589;PMS7003;36547;50.514;30.840;2024-01-30T01:43:47;27.20;26.60;16.80
50589;PMS7003;36547;50.514;30.840;2024-01-30T01:44:50;29.30;27.40;18.00
50589;PMS7003;36547;50.514;30.840;2024-01-30T01:45:52;24.50;23.60;18.00
50589;PMS7003;36547;50.514;30.840;2024-01-30T01:46:54;26.70;26.40;17.20
50589;PMS7003;36547;50.514;30.840;2024-01-30T01:47:58;27.80;26.50;16.90
50589;PMS7003;36547;50.514;30.840;2024-01-30T01:49:02;30.20;29.60;18.70
50589;PMS7003;36547;50.514;30.840;2024-01-30T01:50:06;26.20;25.40;17.50
50589;PMS7003;36547;50.514;30.840;2024-01-30T01:51:10;16.50;14.70;8.10
50589;PMS7003;36547;50.514;30.840;2024-01-30T01:52:13;29.20;23.60;15.60
50589;PMS7003;36547;50.514;30.840;2024-01-30T01:53:15;25.60;24.20;16.30
50589;PMS7003;36547;50.514;30.840;2024-01-30T01:54:18;22.80;22.10;14.00
50589;PMS7003;36547;50.514;30.840;2024-01-30T01:55:24;25.30;24.90;15.90
50589;PMS7003;36547;50.514;30.840;2024-01-30T01:56:27;23.60;22.50;16.70
50589;PMS7003;36547;50.514;30.840;2024-01-30T01:57:31;28.30;27.20;17.40
50589;PMS7003;36547;50.514;30.840;2024-01-30T01:58:35;26.50;26.20;17.00
50589;PMS7003;36547;50.514;30.840;2024-01-30T01:59:39;30.50;30.20;19.30
50589;PMS7003;36547;50.514;30.840;2024-01-30T02:00:41;33.30;32.40;19.70
50589;PMS7003;36547;50.514;30.840;2024-01-30T02:01:44;34.10;31.20;20.60
50589;PMS7003;36547;50.514;30.840;2024-01-30T02:02:47;36.45;33.18;20.45
50589;PMS7003;36547;50.514;30.840;2024-01-30T02:03:51;34.30;32.50;21.30
50589;PMS7003;36547;50.514;30.840;2024-01-30T02:04:54;38.55;34.45;21.45
50589;PMS7003;36547;50.514;30.840;2024-01-30T02:05:57;36.30;32.10;21.40
50589;PMS7003;36547;50.514;30.840;2024-01-30T02:07:00;32.70;31.70;21.50
50589;PMS7003;36547;50.514;30.840;2024-01-30T02:08:03;24.30;23.70;12.10
50589;PMS7003;36547;50.514;30.840;2024-01-30T02:09:06;33.10;32.40;20.80
50589;PMS7003;36547;50.514;30.840;2024-01-30T02:10:09;37.82;36.82;21.55
50589;PMS7003;36547;50.514;30.840;2024-01-30T02:11:11;30.30;29.20;20.70
50589;PMS7003;36547;50.514;30.840;2024-01-30T02:12:14;36.80;34.30;21.90
50589;PMS7003;36547;50.514;30.840;2024-01-30T02:13:16;35.30;33.00;21.70
50589;PMS7003;36547;50.514;30.840;2024-01-30T02:14:19;31.60;30.90;18.90
50589;PMS7003;36547;50.514;30.840;2024-01-30T02:15:22;32.80;31.90;18.80
50589;PMS7003;36547;50.514;30.840;2024-01-30T02:16:26;36.90;32.30;19.90
50589;PMS7003;36547;50.514;30.840;2024-01-30T02:17:29;34.40;31.50;21.10
50589;PMS7003;36547;50.514;30.840;2024-01-30T02:18:31;38.60;35.60;20.60
50589;PMS7003;36547;50.514;30.840;2024-01-30T02:19:34;33.10;31.80;21.20
50589;PMS7003;36547;50.514;30.840;2024-01-30T02:20:36;31.90;30.50;21.60
50589;PMS7003;36547;50.514;30.840;2024-01-30T02:21:40;39.20;35.70;23.90
50589;PMS7003;36547;50.514;30.840;2024-01-30T02:22:43;33.70;32.20;21.80
50589;PMS7003;36547;50.514;30.840;2024-01-30T02:23:46;35.80;33.60;20.90
50589;PMS7003;36547;50.514;30.840;2024-01-30T02:24:50;38.20;34.50;21.70
50589;PMS7003;36547;50.514;30.840;2024-01-30T02:25:52;34.50;30.10;20.80
50589;PMS7003;36547;50.514;30.840;2024-01-30T02:26:55;34.36;33.45;23.73
50589;PMS7003;36547;50.514;30.840;2024-01-30T02:27:58;36.80;33.80;22.30
50589;PMS7003;36547;50.514;30.840;2024-01-30T02:29:01;36.40;35.00;21.40
50589;PMS7003;36547;50.514;30.840;2024-01-30T02:30:04;43.50;37.60;23.30
50589;PMS7003;36547;50.514;30.840;2024-01-30T02:31:07;35.70;33.60;23.70
50589;PMS7003;36547;50.514;30.840;2024-01-30T02:32:09;35.70;34.90;23.90
50589;PMS7003;36547;50.514;30.840;2024-01-30T02:33:12;40.20;36.90;24.40
50589;PMS7003;36547;50.514;30.840;2024-01-30T02:34:14;40.10;37.50;24.50
50589;PMS7003;36547;50.514;30.840;2024-01-30T02:35:17;37.64;35.82;24.45
50589;PMS7003;36547;50.514;30.840;2024-01-30T02:36:21;31.50;31.40;18.10
50589;PMS7003;36547;50.514;30.840;2024-01-30T02:37:24;39.00;36.55;24.00
50589;PMS7003;36547;50.514;30.840;2024-01-30T02:38:26;37.00;35.80;23.00
50589;PMS7003;36547;50.514;30.840;2024-01-30T02:39:29;43.10;38.70;23.00
50589;PMS7003;36547;50.514;30.840;2024-01-30T02:40:31;37.40;34.80;22.30
50589;PMS7003;36547;50.514;30.840;2024-01-30T02:41:34;35.80;33.40;21.20
50589;PMS7003;36547;50.514;30.840;2024-01-30T02:42:36;35.20;34.70;23.40
50589;PMS7003;36547;50.514;30.840;2024-01-30T02:43:38;33.60;33.60;21.20
50589;PMS7003;36547;50.514;30.840;2024-01-30T02:44:41;34.00;33.50;21.90
50589;PMS7003;36547;50.514;30.840;2024-01-30T02:45:43;34.90;31.40;20.30
50589;PMS7003;36547;50.514;30.840;2024-01-30T02:46:45;31.70;31.30;20.50
50589;PMS7003;36547;50.514;30.840;2024-01-30T02:47:47;36.00;33.20;20.70
50589;PMS7003;36547;50.514;30.840;2024-01-30T02:48:50;33.30;33.30;21.80
50589;PMS7003;36547;50.514;30.840;2024-01-30T02:49:52;35.20;32.60;19.60
50589;PMS7003;36547;50.514;30.840;2024-01-30T02:50:57;37.10;34.40;21.90
50589;PMS7003;36547;50.514;30.840;2024-01-30T02:53:14;37.30;34.90;23.10
50589;PMS7003;36547;50.514;30.840;2024-01-30T02:54:16;37.60;36.40;25.30
50589;PMS7003;36547;50.514;30.840;2024-01-30T02:55:21;40.10;37.00;24.00
50589;PMS7003;36547;50.514;30.840;2024-01-30T02:56:25;36.90;33.00;22.30
50589;PMS7003;36547;50.514;30.840;2024-01-30T02:57:28;35.10;33.40;22.80
50589;PMS7003;36547;50.514;30.840;2024-01-30T02:58:31;42.27;38.09;23.91
50589;PMS7003;36547;50.514;30.840;2024-01-30T02:59:33;37.90;35.40;23.20
50589;PMS7003;36547;50.514;30.840;2024-01-30T03:00:35;39.40;36.60;23.00
50589;PMS7003;36547;50.514;30.840;2024-01-30T03:01:45;41.20;36.10;21.50
50589;PMS7003;36547;50.514;30.840;2024-01-30T03:02:48;40.90;36.60;22.70
50589;PMS7003;36547;50.514;30.840;2024-01-30T03:03:50;38.60;35.90;23.00
50589;PMS7003;36547;50.514;30.840;2024-01-30T03:04:53;37.20;34.10;21.50
50589;PMS7003;36547;50.514;30.840;2024-01-30T03:05:55;38.30;34.40;23.00
50589;PMS7003;36547;50.514;30.840;2024-01-30T03:06:57;38.10;35.80;21.40
50589;PMS7003;36547;50.514;30.840;2024-01-30T03:08:00;38.20;35.30;22.90
50589;PMS7003;36547;50.514;30.840;2024-01-30T03:09:03;37.80;33.50;22.50
50589;PMS7003;36547;50.514;30.840;2024-01-30T03:10:05;37.60;36.00;23.20
50589;PMS7003;36547;50.514;30.840;2024-01-30T03:11:09;40.60;34.80;21.90
50589;PMS7003;36547;50.514;30.840;2024-01-30T03:12:11;41.90;36.60;23.50
50589;PMS7003;36547;50.514;30.840;2024-01-30T03:13:13;38.70;34.50;21.90
50589;PMS7003;36547;50.514;30.840;2024-01-30T03:14:16;35.00;34.00;22.60
50589;PMS7003;36547;50.514;30.840;2024-01-30T03:15:18;37.10;35.10;24.50
50589;PMS7003;36547;50.514;30.840;2024-01-30T03:16:22;37.90;36.00;23.10
50589;PMS7003;36547;50.514;30.840;2024-01-30T03:17:24;36.70;34.30;22.10
50589;PMS7003;36547;50.514;30.840;2024-01-30T03:18:27;36.64;35.09;23.64
50589;PMS7003;36547;50.514;30.840;2024-01-30T03:19:30;37.70;36.40;24.10
50589;PMS7003;36547;50.514;30.840;2024-01-30T03:20:32;41.70;36.30;23.50
50589;PMS7003;36547;50.514;30.840;2024-01-30T03:21:34;42.11;37.00;22.22
50589;PMS7003;36547;50.514;30.840;2024-01-30T03:22:36;39.33;36.11;22.00
50589;PMS7003;36547;50.514;30.840;2024-01-30T03:23:38;36.11;34.44;21.22
50589;PMS7003;36547;50.514;30.840;2024-01-30T03:24:41;38.80;35.90;23.40
50589;PMS7003;36547;50.514;30.840;2024-01-30T03:25:43;41.10;37.20;23.20
50589;PMS7003;36547;50.514;30.840;2024-01-30T03:26:47;35.60;34.50;21.90
50589;PMS7003;36547;50.514;30.840;2024-01-30T03:27:49;38.30;36.20;24.40
50589;PMS7003;36547;50.514;30.840;2024-01-30T03:28:52;37.60;36.00;23.20
50589;PMS7003;36547;50.514;30.840;2024-01-30T03:29:54;36.60;34.80;22.40
50589;PMS7003;36547;50.514;30.840;2024-01-30T03:30:57;43.30;38.40;24.00
50589;PMS7003;36547;50.514;30.840;2024-01-30T03:31:59;45.00;39.60;25.70
50589;PMS7003;36547;50.514;30.840;2024-01-30T03:33:02;44.80;40.00;25.70
50589;PMS7003;36547;50.514;30.840;2024-01-30T03:34:04;41.80;38.40;25.00
50589;PMS7003;36547;50.514;30.840;2024-01-30T03:35:07;40.40;37.40;24.20
50589;PMS7003;36547;50.514;30.840;2024-01-30T03:36:11;42.50;38.80;24.50
50589;PMS7003;36547;50.514;30.840;2024-01-30T03:37:13;39.90;36.10;24.00
50589;PMS7003;36547;50.514;30.840;2024-01-30T03:38:15;41.56;37.89;23.56
50589;PMS7003;36547;50.514;30.840;2024-01-30T03:39:17;46.20;39.80;24.40
50589;PMS7003;36547;50.514;30.840;2024-01-30T03:40:22;42.50;38.90;25.90
50589;PMS7003;36547;50.514;30.840;2024-01-30T03:41:24;37.30;34.80;24.50
50589;PMS7003;36547;50.514;30.840;2024-01-30T03:42:27;47.20;40.10;24.90
50589;PMS7003;36547;50.514;30.840;2024-01-30T03:43:29;39.60;37.30;23.60
50589;PMS7003;36547;50.514;30.840;2024-01-30T03:44:31;42.80;37.40;22.90
50589;PMS7003;36547;50.514;30.840;2024-01-30T03:45:34;38.20;35.00;21.60
50589;PMS7003;36547;50.514;30.840;2024-01-30T03:46:37;34.64;33.73;23.00
50589;PMS7003;36547;50.514;30.840;2024-01-30T03:47:39;39.90;36.10;23.00
50589;PMS7003;36547;50.514;30.840;2024-01-30T03:48:45;41.60;37.20;22.30
50589;PMS7003;36547;50.514;30.840;2024-01-30T03:49:48;35.70;32.70;22.50
50589;PMS7003;36547;50.514;30.840;2024-01-30T03:50:50;42.90;37.80;23.70
50589;PMS7003;36547;50.514;30.840;2024-01-30T03:51:52;40.30;37.60;23.90
50589;PMS7003;36547;50.514;30.840;2024-01-30T03:52:55;43.70;37.70;24.20
50589;PMS7003;36547;50.514;30.840;2024-01-30T03:53:58;38.80;36.60;23.10
50589;PMS7003;36547;50.514;30.840;2024-01-30T03:55:00;45.80;39.80;24.00
50589;PMS7003;36547;50.514;30.840;2024-01-30T03:56:03;39.20;36.20;22.70
50589;PMS7003;36547;50.514;30.840;2024-01-30T03:57:05;38.50;35.60;22.30
50589;PMS7003;36547;50.514;30.840;2024-01-30T03:58:08;39.50;37.00;23.70
50589;PMS7003;36547;50.514;30.840;2024-01-30T03:59:10;38.80;36.50;23.00
50589;PMS7003;36547;50.514;30.840;2024-01-30T04:00:14;30.40;27.40;17.10
50589;PMS7003;36547;50.514;30.840;2024-01-30T04:01:17;42.00;38.80;24.70
50589;PMS7003;36547;50.514;30.840;2024-01-30T04:02:20;46.80;38.90;25.20
50589;PMS7003;36547;50.514;30.840;2024-01-30T04:03:22;44.10;40.10;25.80
50589;PMS7003;36547;50.514;30.840;2024-01-30T04:04:25;48.40;39.20;25.80
50589;PMS7003;36547;50.514;30.840;2024-01-30T04:05:27;35.10;32.50;14.80
50589;PMS7003;36547;50.514;30.840;2024-01-30T04:06:30;47.20;42.40;27.90
50589;PMS7003;36547;50.514;30.840;2024-01-30T04:07:32;47.30;41.40;27.80
50589;PMS7003;36547;50.514;30.840;2024-01-30T04:08:35;42.30;38.50;24.90
50589;PMS7003;36547;50.514;30.840;2024-01-30T04:09:38;41.60;37.50;23.50
50589;PMS7003;36547;50.514;30.840;2024-01-30T04:10:40;36.20;35.70;22.70
50589;PMS7003;36547;50.514;30.840;2024-01-30T04:11:42;40.40;36.70;25.10
50589;PMS7003;36547;50.514;30.840;2024-01-30T04:12:45;40.70;37.70;23.80
50589;PMS7003;36547;50.514;30.840;2024-01-30T04:13:48;41.30;38.20;24.20
50589;PMS7003;36547;50.514;30.840;2024-01-30T04:14:50;36.60;34.50;21.50
50589;PMS7003;36547;50.514;30.840;2024-01-30T04:15:53;39.20;35.80;22.50
50589;PMS7003;36547;50.514;30.840;2024-01-30T04:16:55;35.50;34.00;22.30
50589;PMS7003;36547;50.514;30.840;2024-01-30T04:17:57;10.78;9.78;8.44
50589;PMS7003;36547;50.514;30.840;2024-01-30T04:19:00;30.20;30.20;20.20
50589;PMS7003;36547;50.514;30.840;2024-01-30T04:20:04;35.40;34.40;19.60
50589;PMS7003;36547;50.514;30.840;2024-01-30T04:21:07;33.10;32.60;21.00
50589;PMS7003;36547;50.514;30.840;2024-01-30T04:22:09;28.70;27.50;18.20
50589;PMS7003;36547;50.514;30.840;2024-01-30T04:23:13;33.20;30.60;21.50
50589;PMS7003;36547;50.514;30.840;2024-01-30T04:24:18;34.20;33.50;20.90
50589;PMS7003;36547;50.514;30.840;2024-01-30T04:25:25;27.80;26.80;17.00
50589;PMS7003;36547;50.514;30.840;2024-01-30T04:26:28;29.10;27.90;18.60
50589;PMS7003;36547;50.514;30.840;2024-01-30T04:27:34;25.40;25.40;18.90
50589;PMS7003;36547;50.514;30.840;2024-01-30T04:28:37;32.30;28.40;18.00
50589;PMS7003;36547;50.514;30.840;2024-01-30T04:29:43;31.40;30.40;19.80
50589;PMS7003;36547;50.514;30.840;2024-01-30T04:30:47;25.20;25.20;16.90
50589;PMS7003;36547;50.514;30.840;2024-01-30T04:31:51;31.70;29.50;20.20
50589;PMS7003;36547;50.514;30.840;2024-01-30T04:32:57;28.30;26.30;18.60
50589;PMS7003;36547;50.514;30.840;2024-01-30T04:34:01;28.10;27.90;18.40
50589;PMS7003;36547;50.514;30.840;2024-01-30T04:35:07;28.40;27.70;17.80
50589;PMS7003;36547;50.514;30.840;2024-01-30T04:36:16;28.80;26.90;17.40
50589;PMS7003;36547;50.514;30.840;2024-01-30T04:37:20;26.00;26.00;16.80
50589;PMS7003;36547;50.514;30.840;2024-01-30T04:38:27;24.80;24.80;16.30
50589;PMS7003;36547;50.514;30.840;2024-01-30T04:40:43;35.70;29.70;19.00
50589;PMS7003;36547;50.514;30.840;2024-01-30T04:41:45;30.50;28.90;18.30
50589;PMS7003;36547;50.514;30.840;2024-01-30T04:42:47;29.50;27.70;19.10
50589;PMS7003;36547;50.514;30.840;2024-01-30T04:43:50;31.00;29.10;19.90
50589;PMS7003;36547;50.514;30.840;2024-01-30T04:44:53;27.64;27.36;18.64
50589;PMS7003;36547;50.514;30.840;2024-01-30T04:45:56;28.00;25.60;17.30
50589;PMS7003;36547;50.514;30.840;2024-01-30T04:46:58;30.00;28.30;18.10
50589;PMS7003;36547;50.514;30.840;2024-01-30T04:48:00;27.00;26.70;18.00
50589;PMS7003;36547;50.514;30.840;2024-01-30T04:49:02;25.50;25.50;17.20
50589;PMS7003;36547;50.514;30.840;2024-01-30T04:50:06;30.42;29.33;19.00
50589;PMS7003;36547;50.514;30.840;2024-01-30T04:51:09;30.30;28.60;19.30
50589;PMS7003;36547;50.514;30.840;2024-01-30T04:52:11;29.60;29.20;20.10
50589;PMS7003;36547;50.514;30.840;2024-01-30T04:53:14;31.90;28.90;20.20
50589;PMS7003;36547;50.514;30.840;2024-01-30T04:54:18;28.70;27.90;19.60
50589;PMS7003;36547;50.514;30.840;2024-01-30T04:55:22;26.30;25.30;14.50
50589;PMS7003;36547;50.514;30.840;2024-01-30T04:56:26;27.50;25.60;17.10
50589;PMS7003;36547;50.514;30.840;2024-01-30T04:57:28;32.60;29.50;19.50
50589;PMS7003;36547;50.514;30.840;2024-01-30T04:58:31;32.80;32.60;21.10
50589;PMS7003;36547;50.514;30.840;2024-01-30T04:59:34;27.64;25.55;17.09
50589;PMS7003;36547;50.514;30.840;2024-01-30T05:00:36;31.10;31.00;21.50
50589;PMS7003;36547;50.514;30.840;2024-01-30T05:01:39;31.90;31.20;20.30
50589;PMS7003;36547;50.514;30.840;2024-01-30T05:02:41;30.30;28.50;20.00
50589;PMS7003;36547;50.514;30.840;2024-01-30T05:03:43;32.60;30.90;21.60
50589;PMS7003;36547;50.514;30.840;2024-01-30T05:04:46;36.90;33.50;22.00
50589;PMS7003;36547;50.514;30.840;2024-01-30T05:05:48;37.70;35.80;22.70
50589;PMS7003;36547;50.514;30.840;2024-01-30T05:06:51;40.70;36.00;23.10
50589;PMS7003;36547;50.514;30.840;2024-01-30T05:07:54;34.60;33.50;20.20
50589;PMS7003;36547;50.514;30.840;2024-01-30T05:08:56;32.90;31.60;20.80
50589;PMS7003;36547;50.514;30.840;2024-01-30T05:09:58;38.00;35.90;21.70
50589;PMS7003;36547;50.514;30.840;2024-01-30T05:11:03;33.90;32.40;22.20
50589;PMS7003;36547;50.514;30.840;2024-01-30T05:12:07;38.80;35.70;22.00
50589;PMS7003;36547;50.514;30.840;2024-01-30T05:13:09;40.40;35.60;23.20
50589;PMS7003;36547;50.514;30.840;2024-01-30T05:14:11;41.80;36.10;23.50
50589;PMS7003;36547;50.514;30.840;2024-01-30T05:15:14;44.20;39.70;25.50
50589;PMS7003;36547;50.514;30.840;2024-01-30T05:16:18;40.40;37.70;23.50
50589;PMS7003;36547;50.514;30.840;2024-01-30T05:17:20;40.70;37.90;23.30
50589;PMS7003;36547;50.514;30.840;2024-01-30T05:18:24;40.90;35.00;24.40
50589;PMS7003;36547;50.514;30.840;2024-01-30T05:19:26;40.90;35.60;23.40
50589;PMS7003;36547;50.514;30.840;2024-01-30T05:20:29;31.80;30.70;17.60
50589;PMS7003;36547;50.514;30.840;2024-01-30T05:21:31;41.10;36.90;23.30
50589;PMS7003;36547;50.514;30.840;2024-01-30T05:22:33;42.50;38.80;25.30
50589;PMS7003;36547;50.514;30.840;2024-01-30T05:23:35;38.78;36.22;24.22
50589;PMS7003;36547;50.514;30.840;2024-01-30T05:24:38;39.10;35.60;23.20
50589;PMS7003;36547;50.514;30.840;2024-01-30T05:25:40;39.20;37.50;23.70
50589;PMS7003;36547;50.514;30.840;2024-01-30T05:26:44;33.50;33.50;21.80
50589;PMS7003;36547;50.514;30.840;2024-01-30T05:27:47;39.30;35.70;20.80
50589;PMS7003;36547;50.514;30.840;2024-01-30T05:28:49;36.40;32.40;21.60
50589;PMS7003;36547;50.514;30.840;2024-01-30T05:29:51;31.78;31.00;21.33
50589;PMS7003;36547;50.514;30.840;2024-01-30T05:30:53;40.50;36.60;23.00
50589;PMS7003;36547;50.514;30.840;2024-01-30T05:31:55;35.00;33.89;21.00
50589;PMS7003;36547;50.514;30.840;2024-01-30T05:32:57;35.44;33.00;22.56
50589;PMS7003;36547;50.514;30.840;2024-01-30T05:34:00;36.80;32.80;21.00
50589;PMS7003;36547;50.514;30.840;2024-01-30T05:35:03;33.90;33.00;22.30
50589;PMS7003;36547;50.514;30.840;2024-01-30T05:36:07;37.90;35.50;22.30
50589;PMS7003;36547;50.514;30.840;2024-01-30T05:37:09;34.50;32.70;22.00
50589;PMS7003;36547;50.514;30.840;2024-01-30T05:38:12;26.00;24.40;14.80
50589;PMS7003;36547;50.514;30.840;2024-01-30T05:39:14;33.80;32.40;21.50
50589;PMS7003;36547;50.514;30.840;2024-01-30T05:40:18;32.10;30.30;19.10
50589;PMS7003;36547;50.514;30.840;2024-01-30T05:41:20;17.00;16.40;10.10
50589;PMS7003;36547;50.514;30.840;2024-01-30T05:42:23;33.20;30.10;18.90
50589;PMS7003;36547;50.514;30.840;2024-01-30T05:43:25;31.20;29.90;20.00
50589;PMS7003;36547;50.514;30.840;2024-01-30T05:44:28;30.90;29.70;17.70
50589;PMS7003;36547;50.514;30.840;2024-01-30T05:45:30;31.67;31.44;20.11
50589;PMS7003;36547;50.514;30.840;2024-01-30T05:46:33;29.40;28.40;19.30
50589;PMS7003;36547;50.514;30.840;2024-01-30T05:47:39;28.40;26.50;16.10
50589;PMS7003;36547;50.514;30.840;2024-01-30T05:48:41;32.70;32.60;21.20
50589;PMS7003;36547;50.514;30.840;2024-01-30T05:49:43;34.00;32.70;21.20